createdAt,value
2022-12-23T00:03:55.706Z,0.04
2022-12-23T00:08:55.956Z,0.04
2022-12-23T00:13:55.151Z,0.04
2022-12-23T00:18:55.065Z,0.04
2022-12-23T00:23:54.859Z,0.04
2022-12-23T00:28:55.815Z,0.04
2022-12-23T00:33:52.840Z,0.04
2022-12-23T00:38:53.168Z,0.04
2022-12-23T00:43:53.029Z,0.04
2022-12-23T00:48:52.420Z,0.04
2022-12-23T00:53:51.540Z,0.04
2022-12-23T00:58:51.227Z,0.04
2022-12-23T01:03:50.786Z,0.04
2022-12-23T01:08:50.176Z,0.04
2022-12-23T01:13:49.633Z,0.04
2022-12-23T01:18:47.637Z,0.04
2022-12-23T01:23:46.835Z,0.04
2022-12-23T01:28:47.083Z,0.04
2022-12-23T01:33:45.913Z,0.04
2022-12-23T01:38:47.025Z,0.04
2022-12-23T01:43:44.277Z,0.04
2022-12-23T01:48:44.118Z,0.04
2022-12-23T01:53:44.630Z,0.04
2022-12-23T01:58:45.130Z,0.04
2022-12-23T02:03:42.490Z,0.04
2022-12-23T02:08:42.895Z,0.04
2022-12-23T02:13:43.009Z,0.04
2022-12-23T02:18:41.375Z,0.04
2022-12-23T02:23:40.844Z,0.04
2022-12-23T02:28:39.665Z,0.04
2022-12-23T02:33:38.795Z,0.04
2022-12-23T02:38:38.753Z,0.04
2022-12-23T02:43:37.823Z,0.04
2022-12-23T02:48:35.671Z,0.04
2022-12-23T02:53:34.840Z,0.04
2022-12-23T02:58:24.030Z,0.04
2022-12-23T03:03:24.623Z,0.04
2022-12-23T03:08:24.343Z,0.04
2022-12-23T03:13:22.038Z,0.04
2022-12-23T03:18:21.934Z,0.04
2022-12-23T03:23:22.590Z,0.04
2022-12-23T03:28:21.511Z,0.04
2022-12-23T03:33:20.389Z,0.04
2022-12-23T03:38:20.562Z,0.04
2022-12-23T03:43:21.509Z,0.04
2022-12-23T03:48:20.462Z,0.04
2022-12-23T03:53:19.684Z,0.04
2022-12-23T03:58:19.872Z,0.04
2022-12-23T03:59:41.271Z,0.04
2022-12-23T04:04:40.842Z,0.04
2022-12-23T04:09:38.031Z,0.04
2022-12-23T04:14:38.226Z,0.04
2022-12-23T04:19:37.463Z,0.04
2022-12-23T04:24:38.725Z,0.04
2022-12-23T04:29:35.741Z,0.04
2022-12-23T04:34:35.453Z,0.04
2022-12-23T04:39:35.425Z,0.04
2022-12-23T04:44:35.239Z,0.04
2022-12-23T04:49:35.700Z,0.04
2022-12-23T04:54:33.210Z,0.04
2022-12-23T04:59:27.989Z,0.04
2022-12-23T05:04:28.965Z,0.04
2022-12-23T05:09:26.463Z,0.04
2022-12-23T05:14:26.904Z,0.04
2022-12-23T05:19:28.553Z,0.04
2022-12-23T05:24:24.731Z,0.04
2022-12-23T05:29:24.473Z,0.04
2022-12-23T05:34:24.402Z,0.04
2022-12-23T05:39:12.056Z,0.04
2022-12-23T05:44:11.849Z,0.04
2022-12-23T05:49:11.531Z,0.04
2022-12-23T05:54:10.896Z,0.04
2022-12-23T05:58:59.373Z,0.04
2022-12-23T06:03:57.717Z,0.04
2022-12-23T06:09:02.164Z,0.04
2022-12-23T06:13:56.487Z,0.04
2022-12-23T06:18:55.087Z,0.04
2022-12-23T06:23:55.226Z,0.04
2022-12-23T06:28:54.657Z,0.04
2022-12-23T06:33:54.437Z,0.04
2022-12-23T06:38:53.441Z,0.04
2022-12-23T06:43:56.557Z,0.04
2022-12-23T06:48:52.159Z,0.05
2022-12-23T06:53:52.535Z,0.05
2022-12-23T06:58:52.595Z,0.05
2022-12-23T07:03:51.355Z,0.07
2022-12-23T07:08:50.510Z,0.08
2022-12-23T07:13:50.386Z,0.11
2022-12-23T07:18:49.986Z,0.16
2022-12-23T07:23:49.660Z,0.16
2022-12-23T07:28:48.912Z,0.19
2022-12-23T07:33:48.353Z,0.22
2022-12-23T07:38:47.976Z,0.25
2022-12-23T07:43:47.635Z,0.36
2022-12-23T07:48:44.975Z,0.44
2022-12-23T07:53:44.435Z,0.79
2022-12-23T07:58:44.799Z,1
2022-12-23T08:03:44.537Z,1.18
2022-12-23T08:08:45.154Z,1.25
2022-12-23T08:13:42.976Z,1.37
2022-12-23T08:18:44.653Z,1.41
2022-12-23T08:23:42.231Z,1.39
2022-12-23T08:28:44.013Z,1.89
2022-12-23T08:33:39.160Z,1.92
2022-12-23T08:38:39.352Z,1.49
2022-12-23T08:43:39.045Z,1.29
2022-12-23T08:48:38.027Z,1.61
2022-12-23T08:54:02.206Z,1.5
2022-12-23T08:58:25.577Z,1.52
2022-12-23T09:03:26.665Z,2.05
2022-12-23T09:08:24.252Z,2.21
2022-12-23T09:13:37.046Z,2.72
2022-12-23T09:18:24.510Z,2.86
2022-12-23T09:23:23.804Z,2.76
2022-12-23T09:28:22.369Z,2.59
2022-12-23T09:33:22.416Z,2.04
2022-12-23T09:38:21.256Z,1.87
2022-12-23T09:43:20.418Z,1.8
2022-12-23T09:48:29.557Z,1.68
2022-12-23T09:53:29.489Z,1.33
2022-12-23T09:58:29.724Z,1.2
2022-12-23T09:59:51.372Z,1.07
2022-12-23T10:04:51.095Z,1.32
2022-12-23T10:09:50.618Z,1.79
2022-12-23T10:14:50.017Z,2.52
2022-12-23T10:24:47.845Z,3.14
2022-12-23T10:29:47.238Z,1.87
2022-12-23T10:34:48.444Z,2.52
2022-12-23T10:39:44.568Z,1.91
2022-12-23T10:44:44.657Z,1.69
2022-12-23T10:49:43.572Z,2.98
2022-12-23T10:54:43.334Z,2.28
2022-12-23T10:59:26.221Z,2.55
2022-12-23T11:04:26.074Z,2.22
2022-12-23T11:09:27.404Z,1.68
2022-12-23T11:14:24.071Z,1.57
2022-12-23T11:19:24.296Z,1.95
2022-12-23T11:24:23.816Z,1.94
2022-12-23T11:29:11.555Z,1.85
2022-12-23T11:34:11.551Z,1.95
2022-12-23T11:39:12.342Z,1.5
2022-12-23T11:44:11.724Z,1.43
2022-12-23T11:49:10.276Z,1.05
2022-12-23T11:54:09.998Z,1.07
2022-12-23T11:58:56.908Z,0.94
2022-12-23T12:03:56.577Z,0.79
2022-12-23T12:08:57.166Z,0.86
2022-12-23T12:13:54.845Z,1.4
2022-12-23T12:18:57.906Z,1.71
2022-12-23T12:24:20.585Z,1.15
2022-12-23T12:28:52.990Z,1.47
2022-12-23T12:33:54.232Z,1.71
2022-12-23T12:38:53.215Z,1.34
2022-12-23T12:43:52.169Z,1.27
2022-12-23T12:48:51.176Z,1.2
2022-12-23T12:53:51.357Z,1.18
2022-12-23T12:58:50.871Z,1.05
2022-12-23T13:03:51.928Z,0.67
2022-12-23T13:08:47.725Z,0.67
2022-12-23T13:13:48.916Z,0.71
2022-12-23T13:18:47.126Z,1.04
2022-12-23T13:23:47.684Z,1.07
2022-12-23T13:28:44.814Z,1.38
2022-12-23T13:33:45.819Z,1.18
2022-12-23T13:38:46.049Z,1.27
2022-12-23T13:43:44.748Z,1.25
2022-12-23T13:48:44.385Z,1.02
2022-12-23T13:53:43.526Z,0.96
2022-12-23T13:58:43.623Z,1.01
2022-12-23T14:03:43.575Z,1.05
2022-12-23T14:08:42.866Z,1.16
2022-12-23T14:13:42.528Z,1.06
2022-12-23T14:18:42.180Z,0.73
2022-12-23T14:23:42.586Z,0.8
2022-12-23T14:28:38.796Z,0.45
2022-12-23T14:33:39.093Z,0.76
2022-12-23T14:38:37.769Z,0.58
2022-12-23T14:43:37.619Z,0.64
2022-12-23T14:48:34.938Z,0.58
2022-12-23T14:53:34.816Z,0.43
2022-12-23T14:58:24.854Z,0.3
2022-12-23T15:03:25.145Z,0.25
2022-12-23T15:08:24.021Z,0.25
2022-12-23T15:13:23.457Z,0.28
2022-12-23T15:18:23.688Z,0.23
2022-12-23T15:23:22.891Z,0.13
2022-12-23T15:28:24.197Z,0.11
2022-12-23T15:34:17.188Z,0.11
2022-12-23T15:38:20.612Z,0.08
2022-12-23T15:43:20.733Z,0.06
2022-12-23T15:48:29.207Z,0.05
2022-12-23T15:53:28.560Z,0.05
2022-12-23T15:58:30.401Z,0.04
2022-12-23T15:59:51.299Z,0.04
2022-12-23T16:04:51.439Z,0.04
2022-12-23T16:09:50.208Z,0.04
2022-12-23T16:14:51.387Z,0.04
2022-12-23T16:19:47.537Z,0.05
2022-12-23T16:24:47.424Z,0.04
2022-12-23T16:29:46.310Z,0.04
2022-12-23T16:34:46.073Z,0.04
2022-12-23T16:39:45.065Z,0.04
2022-12-23T16:44:44.797Z,0.04
2022-12-23T16:49:44.510Z,0.04
2022-12-23T16:54:44.395Z,0.04
2022-12-23T16:59:27.549Z,0.04
2022-12-23T17:04:27.595Z,0.04
2022-12-23T17:09:27.038Z,0.04
2022-12-23T17:14:25.192Z,0.04
2022-12-23T17:19:31.629Z,0.04
2022-12-23T17:24:25.496Z,0.04
2022-12-23T17:29:24.122Z,0.04
2022-12-23T17:34:24.787Z,0.04
2022-12-23T17:39:33.305Z,0.04
2022-12-23T17:44:13.410Z,0.04
2022-12-23T17:49:14.363Z,0.04
2022-12-23T17:54:12.342Z,0.04
2022-12-23T17:58:59.187Z,0.04
2022-12-23T18:03:55.840Z,0.04
2022-12-23T18:08:55.315Z,0.04
2022-12-23T18:13:55.152Z,0.04
2022-12-23T18:18:54.106Z,0.04
2022-12-23T18:23:52.709Z,0.04
2022-12-23T18:28:52.398Z,0.04
2022-12-23T18:33:51.505Z,0.04
2022-12-23T18:38:52.495Z,0.04
2022-12-23T18:43:48.393Z,0.04
2022-12-23T18:48:48.119Z,0.04
2022-12-23T18:53:47.547Z,0.04
2022-12-23T18:58:47.569Z,0.04
2022-12-23T19:03:44.732Z,0.04
2022-12-23T19:08:44.847Z,0.04
2022-12-23T19:13:44.768Z,0.04
2022-12-23T19:18:44.669Z,0.04
2022-12-23T19:23:43.007Z,0.04
2022-12-23T19:28:42.990Z,0.04
2022-12-23T19:33:42.371Z,0.04
2022-12-23T19:38:41.375Z,0.04
2022-12-23T19:43:40.573Z,0.04
2022-12-23T19:48:40.836Z,0.04
2022-12-23T19:53:40.702Z,0.04
2022-12-23T19:58:38.829Z,0.04
2022-12-23T19:59:59.025Z,0.04
2022-12-23T20:04:59.211Z,0.04
2022-12-23T20:09:58.623Z,0.04
2022-12-23T20:14:58.327Z,0.04
2022-12-23T20:19:57.442Z,0.04
2022-12-23T20:24:57.626Z,0.04
2022-12-23T20:29:56.953Z,0.04
2022-12-23T20:34:58.201Z,0.04
2022-12-23T20:39:54.716Z,0.04
2022-12-23T20:44:54.013Z,0.04
2022-12-23T20:49:53.203Z,0.04
2022-12-23T20:54:53.363Z,0.04
2022-12-23T20:58:55.522Z,0.04
2022-12-23T21:03:55.643Z,0.04
2022-12-23T21:08:56.431Z,0.04
2022-12-23T21:13:55.086Z,0.04
2022-12-23T21:18:54.512Z,0.04
2022-12-23T21:23:55.581Z,0.04
2022-12-23T21:28:55.608Z,0.04
2022-12-23T21:33:51.713Z,0.04
2022-12-23T21:38:51.817Z,0.04
2022-12-23T21:43:50.756Z,0.04
2022-12-23T21:48:50.728Z,0.04
2022-12-23T21:53:47.836Z,0.04
2022-12-23T21:58:47.717Z,0.04
2022-12-23T22:03:47.644Z,0.04
2022-12-23T22:08:47.445Z,0.04
2022-12-23T22:13:46.439Z,0.04
2022-12-23T22:18:46.205Z,0.04
2022-12-23T22:23:45.732Z,0.04
2022-12-23T22:28:45.538Z,0.04
2022-12-23T22:33:46.195Z,0.04
2022-12-23T22:38:42.223Z,0.04
2022-12-23T22:43:42.953Z,0.04
2022-12-23T22:48:43.852Z,0.04
2022-12-23T22:53:42.243Z,0.04
2022-12-23T22:58:42.760Z,0.04
2022-12-23T23:00:15.064Z,0.04
2022-12-23T23:05:13.346Z,0.04
2022-12-23T23:10:01.113Z,0.04
2022-12-23T23:15:00.650Z,0.04
2022-12-23T23:20:00.635Z,0.04
2022-12-23T23:25:00.509Z,0.04
2022-12-23T23:29:59.278Z,0.04
2022-12-23T23:34:59.040Z,0.04
2022-12-23T23:39:58.807Z,0.04
2022-12-23T23:44:58.473Z,0.04
2022-12-23T23:49:59.287Z,0.04
2022-12-23T23:54:55.406Z,0.04
2022-12-23T23:59:25.882Z,0.04
